Time;durP1;ratioP1;P1;durP2;ratioP2;P2;SDS_P1;SDS_P2;PMS_P1;PMS_P2;Temp;Humidity;BMP_temperature;BMP_pressure;BME280_temperature;BME280_humidity;BME280_pressure;Samples;Min_cycle;Max_cycle;Signal;HPM_P1;HPM_P2
2022/08/19 00:01:29;;;;;;;10.00;3.65;;;;;;;21.53;65.13;99661.11;1650331;86;21072;-79
2022/08/19 00:03:58;;;;;;;8.75;3.62;;;;;;;21.55;64.92;99665.75;1650481;86;21060;-80
2022/08/19 00:06:25;;;;;;;7.58;3.40;;;;;;;21.53;64.83;99671.86;1650647;86;21899;-80
2022/08/19 00:08:52;;;;;;;13.75;3.80;;;;;;;21.52;64.82;99666.14;1650303;86;21888;-79
2022/08/19 00:11:19;;;;;;;10.28;3.70;;;;;;;21.52;64.79;99666.14;1650654;86;21088;-77
2022/08/19 00:13:47;;;;;;;9.05;3.47;;;;;;;21.53;64.71;99670.52;1650445;86;21065;-78
2022/08/19 00:20:21;;;;;;;11.70;3.45;;;;;;;21.52;64.75;99671.52;1650488;86;21521;-77
2022/08/19 00:22:47;;;;;;;12.30;3.70;;;;;;;21.48;64.81;99671.64;1650662;86;21029;-78
2022/08/19 00:25:15;;;;;;;12.85;3.77;;;;;;;21.47;64.70;99671.34;1650437;86;21905;-77
2022/08/19 00:27:41;;;;;;;12.28;4.00;;;;;;;21.43;64.75;99666.91;1650538;86;21018;-77
2022/08/19 00:30:10;;;;;;;5.92;3.12;;;;;;;21.39;64.88;99675.06;1650416;86;21048;-77
2022/08/19 00:32:36;;;;;;;9.45;3.52;;;;;;;21.34;65.13;99668.99;1650654;86;21997;-77
2022/08/19 00:35:04;;;;;;;6.22;3.40;;;;;;;21.28;65.33;99672.50;1650377;86;21130;-77
2022/08/19 00:37:32;;;;;;;7.90;3.50;;;;;;;21.22;65.59;99673.29;1650438;86;21073;-77
2022/08/19 00:39:59;;;;;;;9.45;3.80;;;;;;;21.18;65.75;99668.55;1650605;86;21049;-77
2022/08/19 00:42:28;;;;;;;9.18;3.60;;;;;;;21.14;65.68;99669.50;1650643;86;21033;-78
2022/08/19 00:44:54;;;;;;;9.55;3.60;;;;;;;21.12;65.71;99669.67;1650367;86;21860;-78
2022/08/19 00:47:21;;;;;;;6.65;3.50;;;;;;;21.11;65.72;99672.05;1650347;86;21029;-78
2022/08/19 00:49:53;;;;;;;12.53;3.80;;;;;;;21.10;65.76;99673.61;1650922;86;21033;-79
2022/08/19 00:52:26;;;;;;;11.45;3.40;;;;;;;21.09;65.76;99680.84;1650537;86;21532;-79
2022/08/19 00:54:53;;;;;;;10.48;3.80;;;;;;;21.06;65.76;99681.27;1650727;86;21056;-80
2022/08/19 00:57:31;;;;;;;11.78;3.52;;;;;;;21.03;65.62;99684.34;1650370;86;21949;-79
2022/08/19 00:59:59;;;;;;;10.28;3.40;;;;;;;21.04;65.53;99684.69;1650274;86;21436;-79
2022/08/19 01:02:25;;;;;;;9.55;3.50;;;;;;;21.04;65.47;99681.17;1650398;86;21069;-78
2022/08/19 01:04:52;;;;;;;10.48;4.10;;;;;;;21.02;65.41;99690.75;1650327;86;21089;-79
2022/08/19 01:07:19;;;;;;;6.20;3.37;;;;;;;21.03;65.42;99692.91;1650398;86;21789;-79
2022/08/19 01:09:47;;;;;;;8.90;3.65;;;;;;;21.04;65.47;99686.55;1650327;86;22474;-78
2022/08/19 01:12:13;;;;;;;5.90;3.25;;;;;;;21.04;65.58;99686.55;1650524;86;21724;-79
2022/08/19 01:14:40;;;;;;;6.42;3.52;;;;;;;21.02;65.64;99680.01;1650403;86;21476;-78
2022/08/19 01:17:09;;;;;;;12.68;3.80;;;;;;;21.02;65.67;99679.19;1650294;85;21585;-79
2022/08/19 01:19:38;;;;;;;13.22;3.75;;;;;;;21.00;65.73;99675.37;1650430;86;21049;-79
2022/08/19 01:22:47;;;;;;;11.30;3.60;;;;;;;20.98;65.84;99668.56;1650593;86;21802;-79
2022/08/19 01:25:16;;;;;;;12.45;3.77;;;;;;;20.95;66.00;99673.83;1650501;86;21791;-78
2022/08/19 01:27:51;;;;;;;12.88;4.20;;;;;;;20.90;66.23;99674.95;1650390;86;21040;-78
2022/08/19 01:30:23;;;;;;;9.20;3.60;;;;;;;20.83;66.46;99670.91;1649285;86;21299;-77
2022/08/19 01:32:51;;;;;;;11.55;3.67;;;;;;;20.77;66.64;99672.27;1650340;86;21048;-77
2022/08/19 01:35:18;;;;;;;8.40;3.47;;;;;;;20.71;66.80;99667.71;1650364;86;23212;-78
2022/08/19 01:37:48;;;;;;;10.98;3.65;;;;;;;20.67;66.96;99668.64;1622997;86;21041;-78
2022/08/19 01:40:16;;;;;;;11.03;3.60;;;;;;;20.65;67.08;99669.34;1650288;86;21524;-78
2022/08/19 01:42:43;;;;;;;9.65;3.40;;;;;;;20.61;67.17;99680.19;1650356;86;21025;-77
2022/08/19 01:45:10;;;;;;;7.72;3.15;;;;;;;20.60;67.28;99681.73;1650665;86;21058;-78
2022/08/19 01:47:36;;;;;;;12.03;3.70;;;;;;;20.57;67.33;99682.45;1650369;86;21968;-78
2022/08/19 01:50:06;;;;;;;9.73;3.60;;;;;;;20.55;67.41;99681.81;1650314;86;21088;-77
2022/08/19 01:52:36;;;;;;;9.50;3.27;;;;;;;20.52;67.51;99679.55;1650322;86;21052;-77
2022/08/19 01:55:04;;;;;;;7.10;3.80;;;;;;;20.49;67.58;99682.64;1650596;86;21465;-78
2022/08/19 01:57:31;;;;;;;11.20;3.58;;;;;;;20.48;67.67;99683.67;1650370;86;21033;-80
2022/08/19 01:59:59;;;;;;;9.55;3.37;;;;;;;20.46;67.74;99690.25;1649900;86;22214;-78
2022/08/19 02:02:25;;;;;;;9.45;3.87;;;;;;;20.45;67.84;99692.11;1648961;87;21348;-79
2022/08/19 02:04:53;;;;;;;10.28;3.60;;;;;;;20.41;67.93;99685.98;1648943;86;21188;-79
2022/08/19 02:07:21;;;;;;;13.10;3.70;;;;;;;20.40;68.03;99683.00;1649180;86;21040;-78
2022/08/19 02:09:48;;;;;;;7.40;3.27;;;;;;;20.39;68.11;99686.20;1648981;86;21028;-80
2022/08/19 02:12:16;;;;;;;7.95;3.85;;;;;;;20.36;68.20;99680.39;1648919;87;22249;-79
2022/08/19 02:14:42;;;;;;;9.28;3.30;;;;;;;20.34;68.27;99681.11;1648907;86;21568;-79
2022/08/19 02:17:09;;;;;;;10.88;3.45;;;;;;;20.31;68.33;99682.34;1648965;86;21757;-78
2022/08/19 02:19:35;;;;;;;10.98;3.60;;;;;;;20.30;68.37;99679.36;1648914;86;21088;-79
2022/08/19 02:22:02;;;;;;;9.70;3.37;;;;;;;20.27;68.42;99689.16;1649199;86;21035;-79
2022/08/19 02:24:28;;;;;;;8.65;3.50;;;;;;;20.24;68.50;99686.34;1648991;86;21943;-78
2022/08/19 02:26:55;;;;;;;9.28;3.50;;;;;;;20.22;68.54;99686.23;1648871;87;21556;-79
2022/08/19 02:29:21;;;;;;;16.23;3.80;;;;;;;20.20;68.59;99692.32;1648955;86;21479;-78
2022/08/19 02:31:48;;;;;;;11.65;3.90;;;;;;;20.18;68.69;99701.08;1648830;86;21532;-79
2022/08/19 02:34:14;;;;;;;8.75;4.10;;;;;;;20.16;68.79;99694.55;1649221;86;21555;-80
2022/08/19 02:36:40;;;;;;;10.45;3.55;;;;;;;20.16;68.85;99699.09;1648993;86;21880;-78
2022/08/19 02:39:07;;;;;;;10.50;3.70;;;;;;;20.17;68.85;99703.42;1648957;86;21692;-78
2022/08/19 02:41:34;;;;;;;10.43;3.77;;;;;;;20.15;68.88;99698.27;1649061;87;21420;-79
2022/08/19 02:44:02;;;;;;;10.38;3.75;;;;;;;20.13;68.91;99698.98;1649342;86;21044;-77
2022/08/19 02:46:30;;;;;;;6.50;3.87;;;;;;;20.12;69.00;99697.34;1649095;87;21475;-77
2022/08/19 02:49:03;;;;;;;7.28;3.87;;;;;;;20.10;69.11;99698.05;1649053;87;22845;-77
2022/08/19 02:51:34;;;;;;;10.68;3.70;;;;;;;20.08;69.21;99699.30;1649162;87;21016;-78
2022/08/19 02:54:02;;;;;;;12.47;3.85;;;;;;;20.07;69.25;99697.61;1649174;86;21056;-77
2022/08/19 02:56:28;;;;;;;12.58;3.90;;;;;;;20.09;69.25;99701.77;1649108;87;21794;-78
2022/08/19 02:58:55;;;;;;;7.00;3.70;;;;;;;20.09;69.28;99700.94;1649082;87;21076;-78
2022/08/19 03:01:28;;;;;;;9.05;3.35;;;;;;;20.06;69.36;99700.80;1649064;86;22436;-78
2022/08/19 03:03:55;;;;;;;;;;;;;;;20.01;69.47;99702.76;1651584;87;21267;-78
2022/08/19 03:06:22;;;;;;;7.05;3.98;;;;;;;19.99;69.52;99696.77;1637240;87;20516;-76
2022/08/19 03:08:50;;;;;;;11.60;3.55;;;;;;;19.96;69.61;99695.81;1649013;86;21072;-78
2022/08/19 03:11:24;;;;;;;11.00;3.67;;;;;;;19.91;69.72;99695.59;1637436;87;21100;-77
2022/08/19 03:13:50;;;;;;;7.92;3.62;;;;;;;19.90;69.82;99695.28;1649143;87;22301;-77
2022/08/19 03:16:18;;;;;;;7.17;3.55;;;;;;;19.89;69.91;99694.98;1648906;85;21028;-77
2022/08/19 03:18:45;;;;;;;9.73;3.77;;;;;;;19.88;70.00;99700.02;1660027;86;21852;-76
2022/08/19 03:21:23;;;;;;;9.35;3.83;;;;;;;19.87;70.12;99692.98;1649030;87;21429;-77
2022/08/19 03:23:56;;;;;;;8.88;4.17;;;;;;;19.86;70.25;99692.67;1649148;87;21052;-77
2022/08/19 03:26:22;;;;;;;7.55;3.70;;;;;;;19.83;70.38;99693.08;1649323;86;21923;-78
2022/08/19 03:28:49;;;;;;;10.80;3.98;;;;;;;19.81;70.53;99692.45;1649037;87;20964;-78
2022/08/19 03:31:18;;;;;;;11.88;4.03;;;;;;;19.80;70.59;99699.36;1649307;86;21819;-78
2022/08/19 03:33:45;;;;;;;10.03;3.77;;;;;;;19.78;70.62;99706.73;1648993;87;21052;-78
2022/08/19 03:36:22;;;;;;;9.68;3.70;;;;;;;19.78;70.65;99701.38;1649251;86;21072;-78
2022/08/19 03:38:52;;;;;;;7.62;3.67;;;;;;;19.81;70.69;99711.22;1649033;87;22805;-78
2022/08/19 03:41:21;;;;;;;10.55;3.87;;;;;;;19.85;70.66;99720.50;1648994;87;21112;-78
2022/08/19 03:43:48;;;;;;;8.75;3.77;;;;;;;19.85;70.61;99720.50;1649040;86;21535;-78
2022/08/19 03:46:17;;;;;;;9.68;3.98;;;;;;;19.88;70.56;99725.48;1649047;86;21071;-77
2022/08/19 03:48:44;;;;;;;8.18;3.98;;;;;;;19.91;70.54;99719.72;1649047;86;21562;-77
2022/08/19 03:51:21;;;;;;;9.33;3.80;;;;;;;19.95;70.45;99716.12;1649039;87;21826;-77
2022/08/19 03:53:47;;;;;;;13.28;3.60;;;;;;;19.97;70.39;99711.37;1648968;86;21076;-77
2022/08/19 03:56:14;;;;;;;8.85;3.40;;;;;;;19.97;70.34;99712.20;1649269;86;21048;-77
2022/08/19 03:58:41;;;;;;;8.08;3.72;;;;;;;19.97;70.30;99708.19;1649036;87;21802;-78
2022/08/19 04:01:09;;;;;;;7.60;3.60;;;;;;;19.96;70.22;99715.91;1649735;86;21744;-77
2022/08/19 04:03:36;;;;;;;9.08;3.95;;;;;;;19.96;70.20;99713.75;1650391;86;22058;-77
2022/08/19 04:06:16;;;;;;;8.40;3.77;;;;;;;19.97;70.24;99718.91;1650292;86;21740;-79
2022/08/19 04:08:45;;;;;;;8.93;3.90;;;;;;;19.97;70.27;99710.86;1650440;86;21356;-77
2022/08/19 04:11:17;;;;;;;10.15;3.85;;;;;;;19.96;70.28;99719.94;1650407;86;21080;-77
2022/08/19 04:13:44;;;;;;;9.08;3.55;;;;;;;19.98;70.33;99729.97;1625843;86;21832;-78
2022/08/19 04:16:10;;;;;;;7.45;3.65;;;;;;;19.98;70.23;99725.13;1650417;85;22592;-78
2022/08/19 04:18:39;;;;;;;9.00;3.60;;;;;;;19.98;70.24;99729.15;1650368;86;21714;-79
2022/08/19 04:21:06;;;;;;;9.40;3.80;;;;;;;19.97;70.21;99727.46;1650470;86;21029;-79
2022/08/19 04:23:32;;;;;;;8.30;3.55;;;;;;;19.99;70.17;99723.58;1650769;86;21037;-76
2022/08/19 04:25:59;;;;;;;10.25;3.75;;;;;;;20.01;70.15;99727.40;1650419;86;21045;-78
2022/08/19 04:28:25;;;;;;;11.73;3.47;;;;;;;20.04;70.09;99727.51;1650502;86;21912;-80
2022/08/19 04:30:53;;;;;;;8.73;3.72;;;;;;;20.04;70.08;99724.83;1650645;86;21045;-78
2022/08/19 04:33:23;;;;;;;10.95;3.85;;;;;;;20.05;70.06;99723.80;1650419;86;21300;-78
2022/08/19 04:35:51;;;;;;;14.33;4.20;;;;;;;20.10;70.01;99716.00;1650336;86;21077;-73
2022/08/19 04:38:22;;;;;;;9.05;3.87;;;;;;;20.13;70.00;99722.30;1650247;86;21081;-77
2022/08/19 04:43:38;;;;;;;9.80;3.95;;;;;;;20.17;69.55;99736.94;1625723;86;21100;-84
2022/08/19 04:46:10;;;;;;;9.65;3.70;;;;;;;20.11;69.39;99734.56;1650562;86;21097;-77
2022/08/19 04:48:38;;;;;;;;;;;;;;;20.11;69.52;99741.27;1652887;86;21033;-76
2022/08/19 04:51:10;;;;;;;9.53;3.58;;;;;;;20.16;69.59;99737.45;1650463;86;20182;-77
2022/08/19 04:53:37;;;;;;;8.93;3.85;;;;;;;20.20;69.61;99744.09;1650500;86;22591;-77
2022/08/19 04:56:13;;;;;;;9.93;4.08;;;;;;;20.22;69.41;99741.20;1650452;86;21509;-78
2022/08/19 04:58:42;;;;;;;13.50;4.58;;;;;;;20.26;69.41;99744.62;1650433;86;21082;-78
2022/08/19 05:01:15;;;;;;;9.45;4.35;;;;;;;20.33;69.23;99750.53;1650161;86;21041;-77
2022/08/19 05:03:41;;;;;;;12.17;4.40;;;;;;;20.33;69.05;99741.14;1625755;86;21061;-79
2022/08/19 05:06:11;;;;;;;10.78;3.77;;;;;;;20.34;68.96;99746.82;1650271;86;21800;-79
2022/08/19 05:08:43;;;;;;;11.95;4.20;;;;;;;20.33;68.95;99747.34;1650390;86;20965;-77
2022/08/19 05:11:11;;;;;;;13.00;3.77;;;;;;;20.33;68.93;99754.05;1648697;86;21503;-75
2022/08/19 05:13:38;;;;;;;7.90;3.83;;;;;;;20.36;68.99;99757.66;1650250;86;21742;-76
2022/08/19 05:16:05;;;;;;;10.40;4.40;;;;;;;20.36;68.99;99764.36;1625569;85;21658;-79
2022/08/19 05:24:08;;;;;;;15.38;8.65;;;;;;;20.30;69.03;99755.28;1650569;86;21056;-78
2022/08/19 05:26:32;;;;;;;27.05;19.10;;;;;;;20.28;69.15;99758.68;1650072;86;21513;-75
2022/08/19 05:29:01;;;;;;;17.07;9.13;;;;;;;20.29;69.29;99759.50;1650322;86;21040;-79
2022/08/19 05:31:27;;;;;;;9.80;4.95;;;;;;;20.29;69.27;99763.02;1650370;86;21922;-77
2022/08/19 05:33:54;;;;;;;36.20;30.80;;;;;;;20.37;69.37;99763.88;1650288;86;21025;-77
2022/08/19 05:39:51;;;;;;;80.40;15.18;;;;;;;20.55;69.24;99767.66;1650419;86;21045;-79
2022/08/19 05:42:20;;;;;;;198.07;14.00;;;;;;;20.69;68.84;99774.44;1625525;86;21069;-77
2022/08/19 05:44:46;;;;;;;74.27;7.65;;;;;;;20.74;68.71;99764.73;1650569;86;21564;-74
2022/08/19 05:47:14;;;;;;;58.10;5.80;;;;;;;20.84;68.60;99772.39;1650507;86;21053;-75
2022/08/19 05:49:41;;;;;;;20.77;4.60;;;;;;;20.94;68.44;99772.86;1650359;86;21029;-76
2022/08/19 05:52:11;;;;;;;11.05;4.42;;;;;;;21.04;67.81;99775.15;1650245;86;21050;-75
2022/08/19 05:54:42;;;;;;;10.38;4.30;;;;;;;21.05;67.08;99778.14;1650320;86;21076;-74
2022/08/19 05:57:09;;;;;;;11.88;4.53;;;;;;;21.07;66.80;99783.61;1650331;86;21990;-75
2022/08/19 05:59:36;;;;;;;8.88;4.00;;;;;;;21.08;66.62;99790.63;1624466;86;21072;-77
2022/08/19 06:02:03;;;;;;;11.63;4.67;;;;;;;21.10;66.56;99795.27;1650490;86;21833;-75
2022/08/19 06:04:30;;;;;;;10.72;4.30;;;;;;;21.13;66.33;99794.89;1650806;86;21056;-74
2022/08/19 06:06:58;;;;;;;9.90;3.90;;;;;;;21.15;66.26;99789.31;1650816;86;21088;-75
2022/08/19 06:09:24;;;;;;;10.90;4.40;;;;;;;21.21;66.36;99787.13;1650782;86;22416;-74
2022/08/19 06:11:59;;;;;;;11.63;4.50;;;;;;;21.25;66.16;99779.50;1650758;86;21137;-74
2022/08/19 06:14:28;;;;;;;9.08;4.20;;;;;;;21.27;66.13;99780.98;1650912;86;21098;-74
2022/08/19 06:16:55;;;;;;;9.83;4.60;;;;;;;21.34;66.18;99780.99;1651167;85;21491;-74
2022/08/19 06:19:23;;;;;;;10.38;4.25;;;;;;;21.41;66.13;99777.77;1651044;86;21512;-75
2022/08/19 06:21:51;;;;;;;11.65;3.75;;;;;;;21.50;65.94;99773.84;1650965;86;22277;-76
2022/08/19 06:24:25;;;;;;;60.15;49.03;;;;;;;21.57;65.87;99773.33;1650956;86;21045;-81
2022/08/19 06:26:54;;;;;;;25.17;21.25;;;;;;;21.69;65.68;99775.69;1650959;86;21072;-80
2022/08/19 06:29:23;;;;;;;12.65;6.25;;;;;;;21.80;66.00;99772.87;1651156;86;21085;-78
2022/08/19 06:31:52;;;;;;;14.98;7.20;;;;;;;21.96;66.12;99766.24;1650969;86;21037;-77
2022/08/19 06:34:19;;;;;;;17.65;10.55;;;;;;;22.13;65.67;99773.37;1650976;86;22386;-78
2022/08/19 06:36:48;;;;;;;13.62;5.97;;;;;;;22.25;65.50;99768.46;1650916;86;21036;-77
2022/08/19 06:39:24;;;;;;;8.55;4.53;;;;;;;22.38;65.08;99771.61;1650987;86;21087;-81
2022/08/19 06:41:53;;;;;;;8.10;4.70;;;;;;;22.51;64.90;99768.88;1651211;86;21049;-77
2022/08/19 06:44:22;;;;;;;12.43;4.30;;;;;;;22.63;64.29;99774.41;1651529;86;21065;-77
2022/08/19 06:46:49;;;;;;;10.32;4.30;;;;;;;22.66;63.59;99768.59;1650996;86;21830;-79
2022/08/19 06:49:17;;;;;;;14.07;4.05;;;;;;;22.70;63.48;99775.21;1650932;86;21777;-77
2022/08/19 06:51:47;;;;;;;12.47;4.60;;;;;;;22.78;63.22;99783.05;1650915;86;21513;-79
2022/08/19 06:54:14;;;;;;;7.70;4.12;;;;;;;22.89;63.44;99788.30;1650982;86;21037;-78
2022/08/19 06:56:41;;;;;;;12.00;4.37;;;;;;;22.99;63.02;99789.17;1651017;86;21280;-79
2022/08/19 06:59:12;;;;;;;14.07;4.55;;;;;;;23.09;62.97;99786.83;1650946;86;22463;-78
2022/08/19 07:01:46;;;;;;;11.78;4.10;;;;;;;23.17;61.78;99787.09;1650678;86;21097;-79
2022/08/19 07:04:12;;;;;;;12.13;4.45;;;;;;;23.08;61.58;99787.87;1650620;86;21107;-80
2022/08/19 07:06:39;;;;;;;13.20;4.30;;;;;;;23.02;61.73;99786.86;1650361;86;21029;-79
2022/08/19 07:09:06;;;;;;;8.40;4.67;;;;;;;23.05;61.77;99789.63;1650427;86;21037;-78
2022/08/19 07:11:33;;;;;;;6.83;4.22;;;;;;;23.06;61.90;99798.02;1625765;86;22040;-77
2022/08/19 07:14:00;;;;;;;12.47;4.20;;;;;;;23.05;61.90;99792.32;1650600;86;21045;-76
2022/08/19 07:16:27;;;;;;;14.90;4.83;;;;;;;23.10;62.30;99792.52;1663143;84;21080;-77
2022/08/19 07:18:55;;;;;;;11.40;4.50;;;;;;;23.20;62.11;99803.63;1677931;85;21504;-75
2022/08/19 07:21:27;;;;;;;12.68;4.47;;;;;;;23.28;61.88;99803.89;1677932;85;21057;-76
2022/08/19 07:23:58;;;;;;;8.43;4.33;;;;;;;23.33;61.51;99804.88;1678180;85;22181;-76
2022/08/19 07:26:31;;;;;;;9.15;4.72;;;;;;;23.33;61.08;99807.56;1652181;85;21040;-77
2022/08/19 07:29:00;;;;;;;;;;;;;;;23.35;61.30;99803.30;1680705;85;21077;-81
2022/08/19 07:31:27;;;;;;;14.93;6.25;;;;;;;23.45;61.29;99800.12;1677938;85;20611;-79
2022/08/19 07:33:55;;;;;;;19.15;14.43;;;;;;;23.55;61.16;99808.56;1677961;85;21029;-79
2022/08/19 07:36:24;;;;;;;11.53;5.17;;;;;;;23.61;60.76;99803.66;1678151;85;22471;-78
2022/08/19 07:38:51;;;;;;;17.37;4.83;;;;;;;23.63;60.53;99801.03;1677912;85;21033;-80
2022/08/19 07:41:22;;;;;;;11.20;4.80;;;;;;;23.74;60.99;99804.05;1678259;85;21109;-80
2022/08/19 07:43:50;;;;;;;26.95;17.55;;;;;;;23.88;61.01;99796.98;1677853;85;21061;-80
2022/08/19 07:46:17;;;;;;;51.75;43.55;;;;;;;24.05;60.78;99792.36;1677963;85;21305;-78
2022/08/19 07:48:47;;;;;;;14.87;6.22;;;;;;;24.20;60.34;99792.80;1678207;85;21907;-80
2022/08/19 07:51:17;;;;;;;10.63;5.12;;;;;;;24.30;59.85;99793.63;1677948;85;21707;-80
2022/08/19 07:53:45;;;;;;;11.88;7.42;;;;;;;24.37;59.06;99800.63;1678226;85;21057;-81
2022/08/19 07:56:13;;;;;;;8.78;4.28;;;;;;;24.37;58.79;99806.56;1678300;85;21073;-80
2022/08/19 07:58:43;;;;;;;46.08;35.92;;;;;;;24.39;58.85;99805.80;1678067;85;21834;-78
2022/08/19 08:01:12;;;;;;;10.45;6.45;;;;;;;24.38;58.57;99809.02;1677968;85;21898;-77
2022/08/19 08:09:17;;;;;;;12.40;4.80;;;;;;;24.66;58.69;99811.18;1677772;85;21584;-81
2022/08/19 08:11:51;;;;;;;11.30;4.25;;;;;;;24.73;57.99;99814.62;1677562;85;21341;-80
2022/08/19 08:14:27;;;;;;;8.63;4.25;;;;;;;24.82;58.12;99817.84;1677565;85;21793;-78
2022/08/19 08:16:53;;;;;;;10.55;4.30;;;;;;;24.95;57.90;99814.12;1677523;85;21052;-76
2022/08/19 08:19:22;;;;;;;10.43;4.20;;;;;;;25.05;57.68;99819.30;1678169;85;21034;-76
2022/08/19 08:21:49;;;;;;;10.03;4.03;;;;;;;25.17;57.42;99816.63;1652442;85;21741;-76
2022/08/19 08:24:16;;;;;;;10.53;4.50;;;;;;;25.23;56.95;99823.00;1678193;85;21132;-74
2022/08/19 08:26:43;;;;;;;9.98;4.12;;;;;;;25.27;56.68;99819.59;1677861;85;21911;-79
2022/08/19 08:29:12;;;;;;;18.85;11.10;;;;;;;25.36;56.90;99818.73;1677851;85;21355;-82
2022/08/19 08:31:40;;;;;;;26.45;19.80;;;;;;;25.47;56.93;99811.17;1677940;85;21580;-81
2022/08/19 08:34:07;;;;;;;33.88;29.23;;;;;;;25.51;56.58;99813.73;1678181;85;21467;-83
2022/08/19 08:36:41;;;;;;;12.90;7.30;;;;;;;25.61;57.21;99803.16;1677942;85;21021;-73
2022/08/19 08:39:06;;;;;;;15.35;4.55;;;;;;;25.78;56.57;99798.44;1677902;84;21918;-79
2022/08/19 08:41:47;;;;;;;10.03;4.75;;;;;;;25.85;55.67;99808.06;1677813;85;21081;-80
2022/08/19 08:44:19;;;;;;;9.50;4.25;;;;;;;25.89;55.08;99813.84;1677875;85;21025;-86
2022/08/19 08:46:53;;;;;;;12.47;4.65;;;;;;;25.89;55.25;99817.91;1678364;85;21484;-75
2022/08/19 08:49:51;;;;;;;12.05;4.45;;;;;;;25.91;55.33;99822.02;1677703;85;21301;-78
2022/08/19 08:52:35;;;;;;;13.20;4.78;;;;;;;26.01;55.06;99829.54;1677861;85;22485;-75
2022/08/19 08:55:07;;;;;;;11.38;4.50;;;;;;;26.09;54.89;99830.55;1678024;84;21060;-76
2022/08/19 08:57:52;;;;;;;12.90;4.30;;;;;;;26.20;55.56;99828.35;1677941;85;21017;-74
2022/08/19 09:00:26;;;;;;;13.72;4.33;;;;;;;26.36;55.14;99836.28;1678090;85;21069;-75
2022/08/19 09:02:54;;;;;;;14.07;4.15;;;;;;;26.48;54.44;99836.29;1678034;84;21151;-79
2022/08/19 09:05:21;;;;;;;8.78;4.10;;;;;;;26.52;55.18;99827.44;1678345;85;22410;-73
2022/08/19 09:08:14;;;;;;;26.68;17.55;;;;;;;26.65;54.79;99828.25;1678348;85;21352;-77
2022/08/19 09:10:53;;;;;;;16.02;8.20;;;;;;;26.77;54.89;99820.36;1641626;86;21037;-76
2022/08/19 09:13:47;;;;;;;11.05;4.90;;;;;;;26.95;53.96;99818.53;1673096;85;21099;-78
2022/08/19 09:16:17;;;;;;;14.80;4.83;;;;;;;27.03;53.71;99814.11;1675262;85;21053;-79
2022/08/19 09:18:52;;;;;;;14.70;4.97;;;;;;;27.14;53.58;99821.36;1678357;85;21937;-77
2022/08/19 09:21:18;;;;;;;16.07;4.80;;;;;;;27.26;53.61;99823.47;1679315;85;21108;-77
2022/08/19 09:23:45;;;;;;;11.57;4.45;;;;;;;27.38;53.20;99824.75;1678474;85;21029;-78
2022/08/19 09:26:15;;;;;;;13.88;4.90;;;;;;;27.47;52.42;99822.45;1678671;85;21312;-78
2022/08/19 09:28:43;;;;;;;12.28;4.25;;;;;;;27.49;53.27;99826.56;1678675;85;21046;-77
2022/08/19 09:31:12;;;;;;;12.10;5.08;;;;;;;27.51;52.50;99828.52;1679075;85;21896;-78
2022/08/19 09:33:38;;;;;;;9.95;4.47;;;;;;;27.56;52.94;99835.91;1678324;85;21301;-76
2022/08/19 09:36:07;;;;;;;12.13;4.40;;;;;;;27.68;52.55;99834.49;1678419;85;21046;-77
2022/08/19 09:38:34;;;;;;;14.93;4.62;;;;;;;27.74;51.77;99838.94;1678367;85;21038;-77
2022/08/19 09:41:05;;;;;;;14.03;4.60;;;;;;;27.70;52.13;99834.55;1654350;85;21108;-80
2022/08/19 09:43:36;;;;;;;14.18;5.03;;;;;;;27.73;52.79;99834.59;1678337;85;21865;-77
2022/08/19 09:46:05;;;;;;;11.50;4.72;;;;;;;27.87;52.13;99836.70;1678303;85;21029;-77
2022/08/19 09:48:32;;;;;;;12.75;4.80;;;;;;;27.99;52.48;99843.92;1655266;85;21029;-77
2022/08/19 09:51:09;;;;;;;19.20;5.30;;;;;;;28.15;51.77;99848.52;1678310;85;21101;-77
2022/08/19 09:53:37;;;;;;;15.72;4.35;;;;;;;28.19;50.80;99849.14;1677579;85;21056;-77
2022/08/19 09:56:04;;;;;;;14.70;5.08;;;;;;;28.27;50.62;99841.07;1678619;85;21820;-74
2022/08/19 09:58:33;;;;;;;13.22;4.92;;;;;;;28.34;51.25;99841.75;1678264;85;21719;-73
2022/08/19 10:01:01;;;;;;;18.40;4.83;;;;;;;28.46;51.06;99849.77;1678336;85;21069;-77
2022/08/19 10:03:29;;;;;;;11.85;7.58;;;;;;;28.62;50.89;99852.16;1678316;84;21306;-77
2022/08/19 10:05:57;;;;;;;13.40;5.08;;;;;;;28.84;51.16;99855.68;1678387;85;21036;-76
2022/08/19 10:08:26;;;;;;;16.55;6.67;;;;;;;29.02;50.24;99858.09;1678280;85;21824;-77
2022/08/19 10:10:54;;;;;;;14.05;6.87;;;;;;;29.11;49.82;99860.36;1678520;85;21038;-77
2022/08/19 10:13:24;;;;;;;17.92;4.87;;;;;;;29.20;48.96;99846.05;1678357;85;21715;-76
2022/08/19 10:15:53;;;;;;;14.40;5.97;;;;;;;29.23;49.22;99858.30;1678299;85;21018;-77
2022/08/19 10:18:20;;;;;;;15.28;5.60;;;;;;;29.35;50.04;99862.53;1678346;85;21052;-74
2022/08/19 10:20:48;;;;;;;10.05;4.55;;;;;;;29.57;49.88;99858.94;1678347;85;22704;-76
2022/08/19 10:23:15;;;;;;;10.05;4.65;;;;;;;29.79;48.34;99861.56;1678245;85;21568;-74
2022/08/19 10:29:00;;;;;;;17.65;4.70;;;;;;;29.85;48.12;99857.80;1678341;85;21449;-74
2022/08/19 10:31:29;;;;;;;11.00;4.85;;;;;;;29.80;47.49;99863.20;1678403;85;21383;-77
2022/08/19 10:33:59;;;;;;;12.28;4.72;;;;;;;29.94;49.18;99869.86;1678572;85;21887;-75
2022/08/19 10:36:29;;;;;;;12.95;4.80;;;;;;;29.94;49.18;99869.86;1678290;85;21097;-76
2022/08/19 10:38:58;;;;;;;15.35;4.85;;;;;;;30.11;48.05;99873.28;1677382;85;21815;-74
2022/08/19 10:41:30;;;;;;;13.50;4.70;;;;;;;30.24;47.67;99870.63;1678649;85;21301;-82
2022/08/19 10:43:59;;;;;;;11.40;4.72;;;;;;;30.30;46.61;99868.73;1655376;85;21080;-76
2022/08/19 10:46:27;;;;;;;13.08;5.33;;;;;;;30.23;46.86;99873.63;1654735;85;21973;-74
2022/08/19 10:48:54;;;;;;;12.07;5.17;;;;;;;30.28;47.61;99878.54;1678297;85;21081;-75
2022/08/19 10:54:05;;;;;;;13.15;4.85;;;;;;;30.40;46.37;99873.73;1678591;85;21073;-75
2022/08/19 10:56:52;;;;;;;10.93;5.10;;;;;;;30.40;46.08;99873.73;1678392;85;21324;-75
2022/08/19 10:59:28;;;;;;;11.57;4.97;;;;;;;30.28;45.49;99871.73;1678520;85;21856;-75
2022/08/19 11:02:01;;;;;;;14.15;5.10;;;;;;;30.12;46.90;99865.93;1678440;85;21025;-74
2022/08/19 11:04:27;;;;;;;;;;;;;;;30.23;47.71;99862.73;1633379;85;21052;-75
2022/08/19 11:06:54;;;;;;;11.20;4.35;;;;;;;30.42;47.08;99870.73;1677971;85;20846;-74
2022/08/19 11:09:27;;;;;;;15.00;4.78;;;;;;;30.51;46.22;99867.78;1678027;85;21037;-76
2022/08/19 11:11:53;;;;;;;12.20;5.00;;;;;;;30.60;46.31;99884.45;1677483;85;22318;-75
2022/08/19 11:14:20;;;;;;;16.82;5.28;;;;;;;30.69;46.82;99875.53;1678260;85;21025;-75
2022/08/19 11:16:49;;;;;;;14.15;5.47;;;;;;;30.79;45.89;99872.03;1677985;85;21033;-75
2022/08/19 11:19:18;;;;;;;14.40;5.00;;;;;;;30.86;46.06;99870.39;1678217;85;21040;-76
2022/08/19 11:21:46;;;;;;;13.88;5.10;;;;;;;30.83;45.32;99875.03;1678107;85;21025;-74
2022/08/19 11:24:23;;;;;;;12.13;5.10;;;;;;;30.72;45.86;99876.89;1678028;85;21937;-75
2022/08/19 11:26:51;;;;;;;12.28;5.10;;;;;;;30.77;46.58;99872.27;1677935;85;20930;-76
2022/08/19 11:29:20;;;;;;;13.68;5.08;;;;;;;31.02;46.86;99874.81;1678199;85;21038;-75
2022/08/19 11:31:48;;;;;;;11.28;5.17;;;;;;;31.12;45.37;99868.56;1677879;85;21070;-75
2022/08/19 11:34:21;;;;;;;11.55;4.90;;;;;;;31.15;46.04;99872.11;1665864;85;21912;-75
2022/08/19 11:36:49;;;;;;;13.60;4.90;;;;;;;31.31;45.45;99868.36;1677376;85;22010;-75
2022/08/19 11:39:18;;;;;;;14.23;5.60;;;;;;;31.48;45.40;99877.13;1677953;85;21038;-75
2022/08/19 11:41:44;;;;;;;11.95;5.25;;;;;;;31.61;44.72;99875.76;1652572;85;21110;-75
2022/08/19 11:44:13;;;;;;;11.60;5.05;;;;;;;31.68;44.15;99868.67;1677909;85;21313;-76
2022/08/19 11:46:40;;;;;;;9.10;4.87;;;;;;;31.72;44.84;99871.93;1678318;85;21858;-75
2022/08/19 11:49:07;;;;;;;12.25;4.72;;;;;;;31.88;43.82;99871.42;1677972;85;21980;-75
2022/08/19 11:51:33;;;;;;;16.02;4.92;;;;;;;31.84;43.23;99869.77;1652664;85;21495;-75
2022/08/19 11:54:00;;;;;;;11.55;4.78;;;;;;;31.80;43.64;99870.05;1677974;85;21536;-75
2022/08/19 11:56:27;;;;;;;8.18;4.72;;;;;;;31.83;43.52;99874.14;1678130;85;21548;-75
2022/08/19 11:58:54;;;;;;;10.63;4.85;;;;;;;31.91;43.64;99870.86;1678013;85;21468;-75
2022/08/19 12:01:22;;;;;;;11.50;4.80;;;;;;;31.99;43.41;99880.42;1678128;85;22562;-75
2022/08/19 12:03:49;;;;;;;12.73;4.87;;;;;;;32.12;43.94;99875.20;1665682;85;21292;-76
2022/08/19 12:06:20;;;;;;;16.00;5.15;;;;;;;32.28;43.03;99875.17;1677855;85;21045;-75